Time;durP1;ratioP1;P1;durP2;ratioP2;P2;SDS_P1;SDS_P2;PMS_P1;PMS_P2;Temp;Humidity;BMP_temperature;BMP_pressure;BME280_temperature;BME280_humidity;BME280_pressure;Samples;Min_cycle;Max_cycle;Signal;HPM_P1;HPM_P2
2023/09/24 00:00:50;;;;;;;;;;;;;;;13.24;70.50;100600.53;1086782;47;1012;-78
2023/09/24 00:01:54;;;;;;;;;;;;;;;13.25;70.58;100604.91;1086982;47;1845;-77
2023/09/24 00:02:54;;;;;;;;;;;;;;;13.24;70.57;100605.91;1086924;47;960;-77
2023/09/24 00:03:58;;;;;;;;;;;;;;;13.24;70.34;100605.91;1086151;47;1401;-79
2023/09/24 02:50:56;;;;;;;;;;;;;;;10.85;79.55;100717.59;1087360;46;1428;-78
2023/09/24 02:51:56;;;;;;;;;;;;;;;10.84;79.51;100720.41;1087969;54;1390;-77
2023/09/24 02:52:58;;;;;;;;;;;;;;;10.80;79.44;100716.28;1087265;47;1327;-76
2023/09/24 03:09:22;;;;;;;;;;;;;;;10.71;79.39;100726.78;1087633;46;900;-79
2023/09/24 03:10:26;;;;;;;;;;;;;;;10.72;79.57;100733.00;1087513;54;968;-78
2023/09/24 03:11:31;;;;;;;;;;;;;;;10.72;79.54;100739.19;1087621;46;1301;-78
2023/09/24 03:12:34;;;;;;;;;;;;;;;10.75;79.19;100736.25;1087556;47;1026;-78
2023/09/24 03:13:37;;;;;;;;;;;;;;;10.79;79.29;100747.53;1087341;47;907;-78
2023/09/24 03:14:37;;;;;;;;;;;;;;;10.83;79.09;100740.94;1087424;47;1365;-78
2023/09/24 03:15:41;;;;;;;;;;;;;;;10.88;78.87;100733.41;1087423;46;960;-78
2023/09/24 03:16:43;;;;;;;;;;;;;;;10.92;78.78;100742.00;1087469;54;1025;-78
2023/09/24 03:17:48;;;;;;;;;;;;;;;10.93;78.44;100739.19;1087395;47;1042;-78
2023/09/24 03:18:49;;;;;;;;;;;;;;;10.93;78.40;100736.53;1087335;47;1027;-78
2023/09/24 03:19:54;;;;;;;;;;;;;;;10.95;78.44;100741.75;1087385;47;983;-79
2023/09/24 03:20:55;;;;;;;;;;;;;;;10.99;78.21;100742.34;1087247;54;1099;-79
2023/09/24 03:21:59;;;;;;;;;;;;;;;11.00;78.05;100731.50;1087456;54;1872;-79
2023/09/24 03:23:02;;;;;;;;;;;;;;;11.02;77.82;100739.38;1087462;54;1304;-79
2023/09/24 03:24:10;;;;;;;;;;;;;;;11.04;77.85;100740.97;1087389;47;879;-79
2023/09/24 03:25:11;;;;;;;;;;;;;;;11.05;77.92;100739.97;1087384;47;981;-80
2023/09/24 03:26:17;;;;;;;;;;;;;;;11.07;78.08;100746.03;1087204;54;947;-79
2023/09/24 03:27:17;;;;;;;;;;;;;;;11.08;77.59;100744.22;1087428;54;1116;-79
2023/09/24 03:28:20;;;;;;;;;;;;;;;11.08;77.86;100745.06;1087471;54;1083;-80
2023/09/24 03:29:22;;;;;;;;;;;;;;;11.10;77.79;100747.59;1087379;54;1033;-79
2023/09/24 03:30:26;;;;;;;;;;;;;;;11.12;77.91;100747.50;1087232;47;1097;-79
2023/09/24 03:31:27;;;;;;;;;;;;;;;11.12;77.53;100744.81;1086724;47;1321;-79
2023/09/24 03:32:31;;;;;;;;;;;;;;;11.13;77.72;100755.38;1086847;54;1123;-79
2023/09/24 03:33:31;;;;;;;;;;;;;;;11.10;78.03;100749.44;1086805;47;1155;-79
2023/09/24 03:34:35;;;;;;;;;;;;;;;11.12;77.98;100752.84;1086983;54;1099;-79
2023/09/24 03:35:35;;;;;;;;;;;;;;;11.08;78.19;100745.06;1087208;54;1020;-79
2023/09/24 03:36:39;;;;;;;;;;;;;;;11.05;78.27;100755.19;1086910;54;1352;-78
2023/09/24 03:37:43;;;;;;;;;;;;;;;11.06;78.10;100751.53;1087212;54;1437;-79
2023/09/24 03:38:46;;;;;;;;;;;;;;;11.02;78.14;100753.63;1087306;54;1103;-79
2023/09/24 03:39:47;;;;;;;;;;;;;;;11.00;78.76;100760.09;1087537;46;1011;-80
2023/09/24 03:40:50;;;;;;;;;;;;;;;10.98;78.75;100757.53;1087264;47;996;-80
2023/09/24 03:41:54;;;;;;;;;;;;;;;10.93;78.71;100757.91;1087143;46;1852;-79
2023/09/24 03:42:57;;;;;;;;;;;;;;;10.91;78.89;100765.22;1087418;46;1072;-80
2023/09/24 03:43:58;;;;;;;;;;;;;;;10.90;79.07;100762.69;1087081;54;1409;-79
2023/09/24 03:45:01;;;;;;;;;;;;;;;10.88;79.01;100759.28;1087151;47;1027;-79
2023/09/24 03:46:02;;;;;;;;;;;;;;;10.87;79.19;100768.28;1087050;46;1016;-79
2023/09/24 03:47:05;;;;;;;;;;;;;;;10.86;79.13;100763.94;1086947;47;1103;-79
2023/09/24 03:48:06;;;;;;;;;;;;;;;10.88;79.29;100769.97;1087281;54;1392;-79
2023/09/24 03:49:11;;;;;;;;;;;;;;;10.87;78.92;100768.28;1087030;54;1336;-80
2023/09/24 03:50:13;;;;;;;;;;;;;;;10.87;79.10;100773.63;1087035;47;1500;-79
2023/09/24 03:51:17;;;;;;;;;;;;;;;10.93;79.04;100773.13;1086088;47;1339;-79
2023/09/24 03:52:17;;;;;;;;;;;;;;;10.96;78.64;100772.84;1087015;54;1523;-77
2023/09/24 03:53:21;;;;;;;;;;;;;;;10.97;78.62;100779.06;1087015;54;1091;-78
2023/09/24 03:54:21;;;;;;;;;;;;;;;10.99;78.58;100779.78;1087033;54;1109;-78
2023/09/24 03:55:24;;;;;;;;;;;;;;;11.01;78.50;100780.50;1086832;54;1126;-79
2023/09/24 03:56:25;;;;;;;;;;;;;;;11.04;78.42;100786.47;1086958;54;1118;-78
2023/09/24 03:57:31;;;;;;;;;;;;;;;11.04;77.83;100782.91;1087098;54;1134;-78
2023/09/24 03:58:32;;;;;;;;;;;;;;;11.05;77.86;100777.44;1087304;47;1019;-78
2023/09/24 03:59:35;;;;;;;;;;;;;;;11.09;78.05;100783.38;1086935;47;1007;-78
2023/09/24 04:00:38;;;;;;;;;;;;;;;11.02;78.04;100780.38;1086930;54;1111;-79
2023/09/24 04:01:39;;;;;;;;;;;;;;;10.91;78.30;100786.63;1086888;54;1309;-78
2023/09/24 04:02:40;;;;;;;;;;;;;;;10.86;78.68;100779.97;1086560;47;1879;-77
2023/09/24 04:03:43;;;;;;;;;;;;;;;10.84;78.54;100782.75;1087143;47;1031;-78
2023/09/24 04:04:43;;;;;;;;;;;;;;;10.82;78.53;100787.38;1087239;47;1098;-78
2023/09/24 04:05:48;;;;;;;;;;;;;;;10.83;78.35;100789.09;1087046;47;1110;-79
2023/09/24 04:06:48;;;;;;;;;;;;;;;10.82;78.36;100786.56;1086941;47;1058;-78
2023/09/24 04:07:53;;;;;;;;;;;;;;;10.74;78.50;100788.06;1087133;54;1106;-77
2023/09/24 04:08:54;;;;;;;;;;;;;;;10.75;78.66;100795.09;1086936;54;1134;-77
2023/09/24 04:09:57;;;;;;;;;;;;;;;10.72;78.66;100791.84;1087096;54;999;-78
2023/09/24 04:10:57;;;;;;;;;;;;;;;10.70;79.10;100799.97;1087183;47;1086;-79
2023/09/24 04:12:01;;;;;;;;;;;;;;;10.66;79.25;100798.53;1087292;54;1500;-78
2023/09/24 04:13:04;;;;;;;;;;;;;;;10.64;79.17;100791.59;1087125;47;983;-78
2023/09/24 04:14:07;;;;;;;;;;;;;;;10.65;79.06;100798.66;1087021;47;1346;-78
2023/09/24 04:15:10;;;;;;;;;;;;;;;10.65;79.03;100804.00;1087018;47;1329;-78
2023/09/24 04:16:14;;;;;;;;;;;;;;;10.62;79.04;100805.09;1087140;54;956;-79
2023/09/24 04:17:15;;;;;;;;;;;;;;;10.56;79.52;100811.81;1087250;54;1430;-78
2023/09/24 04:18:19;;;;;;;;;;;;;;;10.58;79.36;100809.03;1087407;54;1137;-78
2023/09/24 04:19:20;;;;;;;;;;;;;;;10.54;79.95;100807.56;1086381;54;1083;-79
2023/09/24 04:20:26;;;;;;;;;;;;;;;10.48;80.17;100808.06;1086493;54;1213;-79
2023/09/24 04:21:27;;;;;;;;;;;;;;;10.44;80.52;100812.78;1086709;47;1371;-78
2023/09/24 04:22:30;;;;;;;;;;;;;;;10.44;80.85;100811.00;1086909;54;1880;-79
2023/09/24 04:23:32;;;;;;;;;;;;;;;10.41;80.74;100816.56;1085970;54;1027;-78
2023/09/24 04:24:36;;;;;;;;;;;;;;;10.43;80.80;100803.94;1086423;54;1437;-78
2023/09/24 04:25:37;;;;;;;;;;;;;;;10.39;80.74;100818.50;1087290;47;1312;-77
2023/09/24 04:26:40;;;;;;;;;;;;;;;10.40;80.92;100812.19;1087417;54;1442;-78
2023/09/24 04:27:41;;;;;;;;;;;;;;;10.37;81.22;100816.91;1086656;54;980;-79
2023/09/24 04:28:47;;;;;;;;;;;;;;;10.33;81.31;100819.00;1085091;47;1182;-78
2023/09/24 04:29:47;;;;;;;;;;;;;;;10.29;81.81;100822.91;1085432;47;1083;-79
2023/09/24 04:30:51;;;;;;;;;;;;;;;10.26;81.59;100820.47;1085781;47;1492;-78
2023/09/24 04:31:51;;;;;;;;;;;;;;;10.25;81.94;100816.09;1086700;54;1373;-78
2023/09/24 04:32:53;;;;;;;;;;;;;;;10.24;81.77;100820.59;1086648;47;1069;-79
2023/09/24 04:33:56;;;;;;;;;;;;;;;10.27;81.72;100819.50;1087002;54;1113;-78
2023/09/24 04:34:57;;;;;;;;;;;;;;;10.29;81.55;100822.91;1087148;47;1043;-79
2023/09/24 04:36:00;;;;;;;;;;;;;;;10.35;81.27;100822.41;1087067;54;1047;-78
2023/09/24 04:37:01;;;;;;;;;;;;;;;10.37;80.92;100820.50;1086638;47;1472;-78
2023/09/24 04:38:05;;;;;;;;;;;;;;;10.36;81.25;100817.88;1087192;54;1375;-78
2023/09/24 04:39:06;;;;;;;;;;;;;;;10.34;81.43;100825.22;1086881;47;998;-78
2023/09/24 04:40:10;;;;;;;;;;;;;;;10.32;81.29;100822.63;1086840;54;1006;-79
2023/09/24 04:41:11;;;;;;;;;;;;;;;10.31;81.21;100826.28;1086497;54;1617;-80
2023/09/24 04:42:14;;;;;;;;;;;;;;;10.38;81.27;100821.31;1086984;47;1873;-77
2023/09/24 04:43:18;;;;;;;;;;;;;;;10.45;80.88;100827.88;1086537;47;1102;-79
2023/09/24 04:44:23;;;;;;;;;;;;;;;10.48;80.50;100826.78;1087076;54;1607;-78
2023/09/24 04:45:24;;;;;;;;;;;;;;;10.49;80.61;100831.13;1085422;47;1134;-79
2023/09/24 04:46:27;;;;;;;;;;;;;;;10.51;80.28;100832.72;1084643;47;1280;-79
2023/09/24 04:47:29;;;;;;;;;;;;;;;10.56;80.16;100829.69;1085642;54;1307;-80
2023/09/24 04:48:32;;;;;;;;;;;;;;;10.58;80.22;100828.56;1085514;47;1190;-79
2023/09/24 04:49:33;;;;;;;;;;;;;;;10.61;80.11;100831.00;1085840;47;1032;-79
2023/09/24 04:50:36;;;;;;;;;;;;;;;10.61;79.91;100832.81;1086007;54;1432;-78
2023/09/24 04:51:37;;;;;;;;;;;;;;;10.59;80.16;100834.75;1085553;54;1364;-78
2023/09/24 04:52:41;;;;;;;;;;;;;;;10.61;79.82;100839.03;1086065;54;1510;-78
2023/09/24 04:53:42;;;;;;;;;;;;;;;10.58;79.96;100841.09;1086746;47;1101;-77
2023/09/24 04:54:45;;;;;;;;;;;;;;;10.52;80.10;100838.91;1087027;47;1055;-77
2023/09/24 04:55:46;;;;;;;;;;;;;;;10.53;80.39;100841.44;1086698;54;1283;-76
2023/09/24 04:56:52;;;;;;;;;;;;;;;10.54;79.94;100845.00;1086392;47;1184;-78
2023/09/24 04:57:53;;;;;;;;;;;;;;;10.55;80.25;100846.69;1086165;54;1365;-78
2023/09/24 04:58:57;;;;;;;;;;;;;;;10.54;79.98;100845.00;1085552;54;1159;-78
2023/09/24 05:00:00;;;;;;;;;;;;;;;10.54;79.76;100843.16;1085614;54;1038;-78
2023/09/24 05:01:04;;;;;;;;;;;;;;;10.54;79.69;100848.50;1085496;54;1165;-78
2023/09/24 05:02:07;;;;;;;;;;;;;;;10.56;79.79;100840.38;1085066;54;1380;-77
2023/09/24 05:03:08;;;;;;;;;;;;;;;10.58;79.61;100849.13;1085170;47;1847;-78
2023/09/24 05:04:12;;;;;;;;;;;;;;;10.56;79.48;100851.91;1085434;47;1393;-78
2023/09/24 05:05:14;;;;;;;;;;;;;;;10.58;79.46;100849.13;1084575;54;1183;-77
2023/09/24 05:06:18;;;;;;;;;;;;;;;10.59;79.29;100849.00;1082949;47;1161;-78
2023/09/24 05:07:19;;;;;;;;;;;;;;;10.63;79.18;100852.25;1083187;47;1098;-77
2023/09/24 05:08:22;;;;;;;;;;;;;;;10.64;78.97;100855.78;1082859;47;1483;-78
2023/09/24 05:09:23;;;;;;;;;;;;;;;10.62;79.03;100855.91;1082505;47;1402;-78
2023/09/24 05:10:27;;;;;;;;;;;;;;;10.56;78.94;100859.09;1082841;47;983;-77
2023/09/24 05:11:27;;;;;;;;;;;;;;;10.53;79.50;100860.16;1083065;47;1347;-79
2023/09/24 05:12:30;;;;;;;;;;;;;;;10.54;79.40;100861.03;1083150;47;1432;-78
2023/09/24 05:13:31;;;;;;;;;;;;;;;10.51;79.33;100858.59;1083165;47;1419;-79
2023/09/24 05:14:35;;;;;;;;;;;;;;;10.48;79.21;100864.22;1083320;47;1165;-80
2023/09/24 05:15:38;;;;;;;;;;;;;;;10.45;79.00;100858.13;1083331;54;1051;-78
2023/09/24 05:16:42;;;;;;;;;;;;;;;10.42;78.92;100863.72;1083425;47;1032;-79
2023/09/24 05:17:42;;;;;;;;;;;;;;;10.40;79.19;100859.47;1083437;47;1490;-79
2023/09/24 05:18:43;;;;;;;;;;;;;;;10.39;79.13;100863.13;1083764;54;1704;-79
2023/09/24 05:19:46;;;;;;;;;;;;;;;10.35;78.92;100864.28;1083204;47;1233;-79
2023/09/24 05:20:47;;;;;;;;;;;;;;;10.35;78.93;100870.50;1083831;47;1107;-79
2023/09/24 05:21:50;;;;;;;;;;;;;;;10.33;79.11;100871.59;1083610;47;1320;-78
2023/09/24 05:22:51;;;;;;;;;;;;;;;10.29;78.89;100866.50;1083086;47;1878;-78
2023/09/24 05:23:54;;;;;;;;;;;;;;;10.28;79.29;100875.50;1083781;47;1794;-78
2023/09/24 05:24:55;;;;;;;;;;;;;;;10.27;79.21;100872.94;1083229;54;1372;-77
2023/09/24 05:25:59;;;;;;;;;;;;;;;10.25;79.10;100882.91;1082814;47;1606;-76
2023/09/24 05:26:59;;;;;;;;;;;;;;;10.17;78.88;100883.50;1083542;54;1416;-78
2023/09/24 05:28:03;;;;;;;;;;;;;;;10.12;79.76;100880.34;1083431;47;1314;-78
2023/09/24 05:29:03;;;;;;;;;;;;;;;10.07;79.70;100888.75;1083297;54;1639;-78
2023/09/24 05:30:08;;;;;;;;;;;;;;;10.06;79.95;100889.72;1083174;54;1043;-79
2023/09/24 05:31:12;;;;;;;;;;;;;;;10.08;79.58;100889.56;1083812;47;1288;-78
2023/09/24 05:32:16;;;;;;;;;;;;;;;10.09;79.44;100886.81;1083269;47;1107;-78
2023/09/24 05:33:16;;;;;;;;;;;;;;;10.08;79.73;100885.09;1083005;47;1186;-79
2023/09/24 05:34:17;;;;;;;;;;;;;;;10.08;79.42;100890.44;1083385;54;1140;-78
2023/09/24 05:35:20;;;;;;;;;;;;;;;10.02;79.15;100890.06;1083133;47;1515;-78
2023/09/24 05:36:22;;;;;;;;;;;;;;;9.99;80.04;100888.50;1083604;47;1144;-77
2023/09/24 05:37:26;;;;;;;;;;;;;;;10.00;80.12;100892.88;1083637;47;1171;-78
2023/09/24 05:38:29;;;;;;;;;;;;;;;9.96;80.24;100886.06;1083134;47;1536;-78
2023/09/24 05:39:30;;;;;;;;;;;;;;;9.92;80.41;100895.28;1083323;54;1159;-78
2023/09/24 05:40:34;;;;;;;;;;;;;;;9.92;80.46;100885.44;1083735;54;1070;-78
2023/09/24 05:41:35;;;;;;;;;;;;;;;9.94;80.25;100888.00;1082936;54;1635;-78
2023/09/24 05:42:38;;;;;;;;;;;;;;;9.90;80.62;100886.53;1083181;47;1895;-78
2023/09/24 05:43:44;;;;;;;;;;;;;;;9.91;80.37;100885.56;1083116;47;1151;-76
2023/09/24 05:44:47;;;;;;;;;;;;;;;9.94;80.25;100894.19;1083290;46;1165;-80
2023/09/24 05:45:48;;;;;;;;;;;;;;;9.95;80.05;100892.38;1083174;46;1673;-77
2023/09/24 05:46:54;;;;;;;;;;;;;;;9.93;80.44;100891.63;1083490;46;1160;-77
2023/09/24 05:47:56;;;;;;;;;;;;;;;9.89;81.06;100900.88;1083451;54;1155;-79
2023/09/24 05:49:00;;;;;;;;;;;;;;;9.87;80.59;100894.78;1083357;47;1170;-77
2023/09/24 05:50:02;;;;;;;;;;;;;;;9.88;80.92;100893.81;1083907;54;1148;-79
2023/09/24 05:51:07;;;;;;;;;;;;;;;9.87;80.84;100900.97;1084041;47;1117;-77
2023/09/24 05:52:08;;;;;;;;;;;;;;;9.90;80.76;100895.41;1083392;47;1143;-76
2023/09/24 05:53:11;;;;;;;;;;;;;;;9.93;80.35;100897.84;1083539;47;1938;-79
2023/09/24 05:54:12;;;;;;;;;;;;;;;9.91;80.63;100899.78;1083740;54;1125;-76
2023/09/24 05:55:16;;;;;;;;;;;;;;;9.98;80.25;100900.16;1083837;54;1113;-77
2023/09/24 05:56:16;;;;;;;;;;;;;;;9.97;79.87;100901.94;1083564;51;1042;-76
2023/09/24 05:57:20;;;;;;;;;;;;;;;9.90;80.36;100899.91;1083625;54;1446;-77
2023/09/24 05:58:21;;;;;;;;;;;;;;;9.93;81.11;100902.31;1083453;47;1656;-77
2023/09/24 05:59:24;;;;;;;;;;;;;;;9.93;80.74;100896.97;1083481;54;1573;-77
2023/09/24 06:00:28;;;;;;;;;;;;;;;9.95;80.70;100900.38;1083423;47;1061;-77
2023/09/24 06:01:32;;;;;;;;;;;;;;;9.93;81.04;100904.97;1083042;54;1381;-76
2023/09/24 06:02:35;;;;;;;;;;;;;;;9.96;80.60;100902.94;1084590;47;1516;-78
2023/09/24 06:03:38;;;;;;;;;;;;;;;9.98;80.59;100900.97;1084633;54;1899;-78
2023/09/24 06:04:39;;;;;;;;;;;;;;;10.00;80.45;100898.22;1084806;54;1593;-78
2023/09/24 06:05:42;;;;;;;;;;;;;;;10.03;80.54;100897.94;1084023;54;1048;-78
2023/09/24 06:06:43;;;;;;;;;;;;;;;9.93;80.87;100902.31;1084200;47;1526;-78
2023/09/24 06:07:46;;;;;;;;;;;;;;;9.95;80.51;100901.25;1084217;47;1086;-78
2023/09/24 06:08:47;;;;;;;;;;;;;;;9.90;80.90;100902.56;1086466;47;1142;-80
2023/09/24 06:09:50;;;;;;;;;;;;;;;9.85;81.40;100905.59;1087858;47;957;-79
2023/09/24 06:10:52;;;;;;;;;;;;;;;9.93;81.01;100903.19;1087932;47;1091;-80
2023/09/24 06:11:55;;;;;;;;;;;;;;;9.98;80.52;100910.84;1087859;47;1297;-80
2023/09/24 06:12:58;;;;;;;;;;;;;;;10.02;80.14;100912.28;1088172;54;1042;-80
2023/09/24 06:14:10;;;;;;;;;;;;;;;10.02;79.99;100912.28;1088422;54;920;-79
2023/09/24 06:15:13;;;;;;;;;;;;;;;10.08;79.81;100909.16;1088044;47;950;-79
2023/09/24 06:16:26;;;;;;;;;;;;;;;10.10;79.48;100912.56;1088608;47;974;-79
2023/09/24 06:17:27;;;;;;;;;;;;;;;10.02;80.40;100908.78;1088539;54;1144;-80
2023/09/24 06:18:33;;;;;;;;;;;;;;;9.87;80.60;100919.66;1088487;54;978;-80
2023/09/24 06:19:34;;;;;;;;;;;;;;;9.78;81.08;100929.25;1088474;54;1024;-81
2023/09/24 06:20:44;;;;;;;;;;;;;;;9.73;81.88;100926.06;1088606;54;1003;-79
2023/09/24 06:21:44;;;;;;;;;;;;;;;9.83;81.28;100935.06;1088494;54;1407;-81
2023/09/24 06:23:00;;;;;;;;;;;;;;;9.83;81.36;100926.22;1087922;47;939;-81
2023/09/24 06:24:01;;;;;;;;;;;;;;;9.68;81.49;100925.59;1088083;54;994;-81
2023/09/24 06:25:05;;;;;;;;;;;;;;;9.67;81.85;100934.56;1088151;54;1028;-81
2023/09/24 06:26:06;;;;;;;;;;;;;;;9.66;82.14;100923.03;1087862;47;977;-80
2023/09/24 06:27:25;;;;;;;;;;;;;;;9.76;81.95;100928.50;1088050;54;1013;-80
2023/09/24 06:28:49;;;;;;;;;;;;;;;9.71;81.78;100928.03;1087838;46;886;-80
2023/09/24 06:29:53;;;;;;;;;;;;;;;9.67;81.95;100929.22;1087883;54;1155;-77
2023/09/24 06:30:59;;;;;;;;;;;;;;;9.70;82.18;100928.13;1087824;47;943;-79
2023/09/24 06:35:13;;;;;;;;;;;;;;;9.59;82.56;100931.63;1087479;47;950;-78
2023/09/24 06:36:16;;;;;;;;;;;;;;;9.46;82.53;100932.53;1087490;47;949;-79
2023/09/24 06:37:39;;;;;;;;;;;;;;;9.56;82.88;100926.50;1087401;46;948;-79
2023/09/24 06:38:51;;;;;;;;;;;;;;;9.70;81.82;100934.34;1087335;47;935;-79
2023/09/24 06:44:25;;;;;;;;;;;;;;;9.92;80.47;100938.03;1087491;47;1084;-79
2023/09/24 06:58:34;;;;;;;;;;;;;;;10.16;79.80;100945.94;1087648;47;898;-79
2023/09/24 06:59:45;;;;;;;;;;;;;;;10.23;79.64;100940.97;1087469;47;1132;-78
2023/09/24 07:01:28;;;;;;;;;;;;;;;10.35;79.32;100940.00;1087493;47;856;-79
2023/09/24 07:02:29;;;;;;;;;;;;;;;10.46;78.77;100941.84;1087461;54;930;-79
2023/09/24 07:03:33;;;;;;;;;;;;;;;10.53;78.57;100940.38;1087485;54;1858;-79
2023/09/24 07:04:34;;;;;;;;;;;;;;;10.60;78.28;100932.72;1087460;47;1121;-79
2023/09/24 07:05:38;;;;;;;;;;;;;;;10.69;78.02;100936.47;1087416;47;1035;-79
2023/09/24 07:06:50;;;;;;;;;;;;;;;10.74;77.90;100932.47;1087370;47;972;-79
2023/09/24 07:11:16;;;;;;;;;;;;;;;10.83;77.37;100946.91;1087665;46;901;-79
2023/09/24 07:12:19;;;;;;;;;;;;;;;10.79;77.23;100942.78;1087360;54;908;-79
2023/09/24 07:13:27;;;;;;;;;;;;;;;10.79;77.29;100948.13;1087265;47;942;-79
2023/09/24 07:14:28;;;;;;;;;;;;;;;10.62;77.47;100949.50;1087472;46;933;-80
2023/09/24 07:15:37;;;;;;;;;;;;;;;10.45;78.59;100957.03;1087591;47;1011;-79
2023/09/24 07:16:38;;;;;;;;;;;;;;;10.44;78.56;100954.47;1087451;47;971;-79
2023/09/24 07:17:41;;;;;;;;;;;;;;;10.32;79.41;100956.28;1087411;47;968;-79
2023/09/24 07:18:42;;;;;;;;;;;;;;;10.24;79.91;100958.69;1087577;47;952;-80
2023/09/24 07:19:47;;;;;;;;;;;;;;;10.30;80.06;100955.53;1087497;54;964;-79
2023/09/24 07:20:49;;;;;;;;;;;;;;;10.47;79.49;100953.41;1088240;47;952;-79
2023/09/24 07:21:55;;;;;;;;;;;;;;;10.43;79.23;100956.31;1088385;47;1318;-79
2023/09/24 07:23:07;;;;;;;;;;;;;;;10.46;79.29;100955.22;1088328;54;952;-79
2023/09/24 07:24:23;;;;;;;;;;;;;;;;;;;;;
2023/09/24 07:25:42;;;;;;;;;;;;;;;10.43;79.29;100956.31;1088463;54;937;-80
2023/09/24 07:26:44;;;;;;;;;;;;;;;10.50;79.17;100953.13;1088448;47;1008;-78
2023/09/24 07:29:31;;;;;;;;;;;;;;;10.83;78.12;100962.13;1088497;47;916;-79
2023/09/24 07:30:37;;;;;;;;;;;;;;;10.97;77.62;100955.66;1088288;47;993;-79
2023/09/24 07:31:43;;;;;;;;;;;;;;;11.04;77.12;100964.84;1088055;47;1178;-82
2023/09/24 07:32:43;;;;;;;;;;;;;;;11.16;76.83;100960.31;1088065;47;1039;-80
2023/09/24 07:33:53;;;;;;;;;;;;;;;11.10;76.60;100958.16;1088332;54;914;-79
2023/09/24 07:34:55;;;;;;;;;;;;;;;11.20;76.55;100961.78;1088266;54;958;-80
2023/09/24 07:35:58;;;;;;;;;;;;;;;11.32;76.29;100955.41;1088354;54;1052;-81
2023/09/24 07:37:08;;;;;;;;;;;;;;;11.35;76.02;100960.50;1088117;47;994;-80
2023/09/24 07:38:11;;;;;;;;;;;;;;;11.42;75.67;100960.00;1087943;47;875;-81
2023/09/24 07:39:53;;;;;;;;;;;;;;;;;;;;;
2023/09/24 07:41:11;;;;;;;;;;;;;;;11.38;75.83;100962.94;1088017;47;959;-81
2023/09/24 07:42:17;;;;;;;;;;;;;;;11.50;75.90;100960.22;1087893;47;957;-80
2023/09/24 07:43:24;;;;;;;;;;;;;;;11.58;75.36;100954.19;1087370;46;1845;-80
2023/09/24 07:46:04;;;;;;;;;;;;;;;11.45;75.61;100959.72;1087589;47;835;-80
2023/09/24 07:47:05;;;;;;;;;;;;;;;11.28;76.17;100964.66;1087555;46;924;-80
2023/09/24 07:48:13;;;;;;;;;;;;;;;11.26;76.60;100955.06;1087325;47;1008;-80
2023/09/24 07:49:14;;;;;;;;;;;;;;;11.33;76.27;100949.09;1087174;47;932;-79
2023/09/24 07:50:26;;;;;;;;;;;;;;;11.46;75.99;100956.94;1087274;47;905;-79
2023/09/24 07:51:26;;;;;;;;;;;;;;;11.66;75.54;100952.56;1087545;47;1200;-79
2023/09/24 07:52:31;;;;;;;;;;;;;;;11.81;75.23;100954.91;1087272;47;1080;-78
2023/09/24 07:53:31;;;;;;;;;;;;;;;11.92;74.90;100956.69;1087288;51;1059;-79
2023/09/24 07:54:35;;;;;;;;;;;;;;;12.07;74.43;100954.56;1086977;47;1293;-79
2023/09/24 07:55:35;;;;;;;;;;;;;;;12.20;73.97;100954.34;1087388;54;926;-79
2023/09/24 07:56:42;;;;;;;;;;;;;;;12.29;73.95;100951.72;1087485;47;971;-81
2023/09/24 07:57:43;;;;;;;;;;;;;;;12.44;73.47;100946.00;1086899;47;1182;-79
2023/09/24 07:58:48;;;;;;;;;;;;;;;12.54;73.22;100946.88;1086652;47;1431;-79
2023/09/24 07:59:49;;;;;;;;;;;;;;;12.68;73.00;100942.97;1087106;47;1352;-79
2023/09/24 08:00:52;;;;;;;;;;;;;;;12.83;71.67;100945.25;1087327;54;981;-78
2023/09/24 08:01:56;;;;;;;;;;;;;;;12.95;71.40;100949.53;1087399;54;1468;-77
2023/09/24 08:03:00;;;;;;;;;;;;;;;12.95;71.09;100947.69;1087768;54;1048;-78
2023/09/24 08:04:01;;;;;;;;;;;;;;;13.00;70.87;100947.28;1087447;54;1860;-77
2023/09/24 08:05:04;;;;;;;;;;;;;;;13.01;70.61;100942.78;1087751;47;999;-77
2023/09/24 08:06:05;;;;;;;;;;;;;;;13.27;71.14;100943.09;1087887;54;1005;-79
2023/09/24 08:07:08;;;;;;;;;;;;;;;13.34;69.75;100940.66;1087860;54;1074;-77
2023/09/24 08:08:12;;;;;;;;;;;;;;;13.39;69.60;100938.44;1087769;54;955;-78
2023/09/24 08:09:13;;;;;;;;;;;;;;;13.65;70.06;100936.00;1087827;54;925;-79
2023/09/24 08:10:16;;;;;;;;;;;;;;;13.89;69.34;100938.22;1087833;47;1014;-80
2023/09/24 08:11:17;;;;;;;;;;;;;;;14.11;68.74;100936.22;1087761;47;1390;-79
2023/09/24 08:12:20;;;;;;;;;;;;;;;14.32;68.64;100935.16;1087865;47;1045;-78
2023/09/24 08:13:21;;;;;;;;;;;;;;;14.53;68.12;100934.91;1087883;47;1150;-79
2023/09/24 08:14:24;;;;;;;;;;;;;;;14.65;67.52;100932.84;1088013;54;1039;-79
2023/09/24 08:15:25;;;;;;;;;;;;;;;14.76;66.47;100937.25;1087878;54;976;-78
2023/09/24 08:16:28;;;;;;;;;;;;;;;14.85;64.98;100933.66;1087868;54;1005;-78
2023/09/24 08:17:31;;;;;;;;;;;;;;;14.89;65.58;100937.72;1087915;47;1001;-79
2023/09/24 08:18:35;;;;;;;;;;;;;;;15.07;65.71;100934.19;1087869;47;1485;-78
2023/09/24 08:19:36;;;;;;;;;;;;;;;15.11;65.51;100933.72;1087801;54;979;-79
2023/09/24 08:20:36;;;;;;;;;;;;;;;15.33;65.13;100936.97;1088103;47;934;-79
2023/09/24 08:21:40;;;;;;;;;;;;;;;15.43;64.83;100935.06;1087818;54;1309;-79
2023/09/24 08:22:41;;;;;;;;;;;;;;;15.54;64.16;100939.34;1087885;54;1101;-79
2023/09/24 08:23:41;;;;;;;;;;;;;;;15.67;63.79;100933.56;1087838;54;1844;-79
2023/09/24 08:24:44;;;;;;;;;;;;;;;15.83;63.04;100927.44;1087215;47;1581;-79
2023/09/24 08:25:45;;;;;;;;;;;;;;;15.87;63.09;100926.16;1087027;47;1050;-78
2023/09/24 08:26:48;;;;;;;;;;;;;;;16.02;62.99;100933.66;1086617;47;1101;-78
2023/09/24 08:27:49;;;;;;;;;;;;;;;16.19;61.26;100927.38;1085628;47;1168;-78
2023/09/24 08:28:50;;;;;;;;;;;;;;;16.24;61.72;100934.13;1086513;54;1143;-78
2023/09/24 08:29:55;;;;;;;;;;;;;;;16.17;61.47;100937.47;1086678;47;929;-78
2023/09/24 08:30:56;;;;;;;;;;;;;;;16.31;61.41;100936.03;1085720;54;1153;-79
2023/09/24 08:31:59;;;;;;;;;;;;;;;16.35;61.17;100934.69;1086755;54;1583;-79
2023/09/24 08:33:04;;;;;;;;;;;;;;;16.48;60.97;100936.94;1085468;47;1086;-78
2023/09/24 08:34:07;;;;;;;;;;;;;;;16.67;60.19;100935.00;1085392;54;1683;-79
2023/09/24 08:35:08;;;;;;;;;;;;;;;16.87;59.18;100935.56;1085676;47;1524;-79
2023/09/24 08:36:12;;;;;;;;;;;;;;;17.02;58.33;100932.25;1086018;47;1254;-79
2023/09/24 08:37:13;;;;;;;;;;;;;;;17.17;57.64;100933.31;1085602;47;1007;-79
2023/09/24 08:38:16;;;;;;;;;;;;;;;17.20;59.12;100930.25;1085942;47;1144;-81
2023/09/24 08:39:17;;;;;;;;;;;;;;;17.11;58.96;100936.66;1085086;47;1012;-80
2023/09/24 08:40:20;;;;;;;;;;;;;;;17.14;58.52;100930.94;1085437;54;1168;-79
2023/09/24 08:41:21;;;;;;;;;;;;;;;17.26;57.84;100929.59;1085421;47;1616;-79
2023/09/24 08:42:25;;;;;;;;;;;;;;;17.54;57.64;100926.56;1085794;47;1122;-79
2023/09/24 08:43:27;;;;;;;;;;;;;;;17.79;57.44;100931.94;1085508;47;1051;-79
2023/09/24 08:44:28;;;;;;;;;;;;;;;17.76;55.25;100933.16;1085272;47;1909;-80
2023/09/24 08:45:32;;;;;;;;;;;;;;;18.03;56.77;100930.28;1087355;54;1115;-80
2023/09/24 08:46:33;;;;;;;;;;;;;;;17.99;56.54;100928.91;1087553;54;1110;-80
2023/09/24 08:47:38;;;;;;;;;;;;;;;17.96;56.13;100931.91;1087283;54;960;-80
2023/09/24 08:48:41;;;;;;;;;;;;;;;17.88;56.50;100927.38;1087307;54;1332;-80
2023/09/24 08:49:45;;;;;;;;;;;;;;;17.86;55.98;100927.53;1087496;47;1003;-80
2023/09/24 08:50:45;;;;;;;;;;;;;;;17.76;55.85;100930.44;1087654;47;1093;-80
2023/09/24 08:51:50;;;;;;;;;;;;;;;17.66;56.09;100934.34;1087688;54;1430;-80
2023/09/24 08:52:51;;;;;;;;;;;;;;;17.95;55.58;100922.97;1086205;47;971;-79
2023/09/24 08:53:55;;;;;;;;;;;;;;;17.91;55.28;100922.47;1085465;47;1051;-80
2023/09/24 08:54:56;;;;;;;;;;;;;;;18.09;55.35;100922.28;1085432;47;1073;-80
2023/09/24 08:55:59;;;;;;;;;;;;;;;18.14;55.14;100916.34;1085472;54;1114;-79
2023/09/24 08:57:00;;;;;;;;;;;;;;;18.17;54.64;100916.00;1085404;47;1106;-79
2023/09/24 08:58:03;;;;;;;;;;;;;;;18.16;54.76;100919.75;1085048;47;1081;-80
2023/09/24 08:59:05;;;;;;;;;;;;;;;18.29;54.40;100913.78;1084849;47;1510;-79
2023/09/24 09:00:11;;;;;;;;;;;;;;;18.37;54.20;100921.84;1086298;47;1252;-80
2023/09/24 09:02:45;;;;;;;;;;;;;;;18.76;53.13;100913.91;1085985;47;1017;-79
2023/09/24 09:03:49;;;;;;;;;;;;;;;18.92;53.13;100912.97;1084827;47;1906;-80